Time;durP1;ratioP1;P1;durP2;ratioP2;P2;SDS_P1;SDS_P2;PMS_P1;PMS_P2;Temp;Humidity;BMP_temperature;BMP_pressure;BME280_temperature;BME280_humidity;BME280_pressure;Samples;Min_cycle;Max_cycle;Signal;HPM_P1;HPM_P2
2023/10/14 00:01:13;;;;;;;0.00;0.00;;;13.20;99.90;;;;;;5081934;27;20567;-68
2023/10/14 00:03:45;;;;;;;0.10;0.10;;;13.20;99.90;;;;;;5081839;28;20066;-70
2023/10/14 00:06:12;;;;;;;0.00;0.00;;;13.20;99.90;;;;;;5084518;28;20118;-69
2023/10/14 00:08:58;;;;;;;0.68;0.25;;;13.20;99.90;;;;;;5075928;28;20383;-69
2023/10/14 00:11:33;;;;;;;0.10;0.10;;;13.20;99.90;;;;;;5084037;27;20407;-69
2023/10/14 00:13:59;;;;;;;0.32;0.30;;;13.20;99.90;;;;;;5087835;28;20032;-66
2023/10/14 00:16:30;;;;;;;0.00;0.00;;;13.20;99.90;;;;;;5114497;27;20040;-68
2023/10/14 00:18:58;;;;;;;0.00;0.00;;;13.00;99.90;;;;;;5111076;27;20050;-68
2023/10/14 00:21:24;;;;;;;1.60;0.30;;;13.00;99.90;;;;;;5118942;27;20036;-72
2023/10/14 00:23:52;;;;;;;0.00;0.00;;;12.90;99.90;;;;;;5079247;28;20081;-68
2023/10/14 00:26:20;;;;;;;0.10;0.10;;;12.90;99.90;;;;;;5081074;28;20039;-69
2023/10/14 00:28:46;;;;;;;0.10;0.10;;;12.80;99.90;;;;;;5085910;27;20048;-69
2023/10/14 00:31:13;;;;;;;0.45;0.20;;;12.80;99.90;;;;;;5113726;27;20039;-70
2023/10/14 00:33:38;;;;;;;0.20;0.10;;;12.60;99.90;;;;;;5083088;28;20040;-69
2023/10/14 00:36:10;;;;;;;0.65;0.10;;;12.60;99.90;;;;;;5085459;28;20483;-67
2023/10/14 00:38:44;;;;;;;0.00;0.00;;;12.50;99.90;;;;;;5085536;28;20034;-71
2023/10/14 00:41:11;;;;;;;0.10;0.05;;;12.50;99.90;;;;;;5082881;28;20050;-71
2023/10/14 00:43:37;;;;;;;0.03;0.03;;;12.40;99.90;;;;;;5081630;28;20032;-71
2023/10/14 00:46:12;;;;;;;0.10;0.10;;;12.50;99.90;;;;;;5083330;28;20531;-72
2023/10/14 00:48:40;;;;;;;1.00;0.20;;;12.40;99.90;;;;;;5082706;28;20046;-72
2023/10/14 00:51:10;;;;;;;0.10;0.10;;;12.30;99.90;;;;;;5098120;28;20039;-69
2023/10/14 00:53:39;;;;;;;0.00;0.00;;;12.30;99.90;;;;;;5081272;28;20036;-72
2023/10/14 00:56:11;;;;;;;0.08;0.08;;;12.30;99.90;;;;;;5083844;28;20341;-71
2023/10/14 00:58:41;;;;;;;0.00;0.00;;;12.30;99.90;;;;;;5115846;27;20044;-70
2023/10/14 01:01:07;;;;;;;0.55;0.40;;;12.20;99.90;;;;;;5097039;28;20040;-72
2023/10/14 01:03:34;;;;;;;0.20;0.20;;;12.20;99.90;;;;;;5082660;28;20044;-72
2023/10/14 01:08:43;;;;;;;0.32;0.32;;;12.20;99.90;;;;;;5113028;27;20070;-70
2023/10/14 01:11:09;;;;;;;0.00;0.00;;;12.20;99.90;;;;;;5078182;28;20123;-72
2023/10/14 01:13:35;;;;;;;0.00;0.00;;;12.10;99.90;;;;;;5079487;28;20123;-73
2023/10/14 01:16:08;;;;;;;2.28;1.55;;;12.10;99.90;;;;;;5081896;28;20032;-71
2023/10/14 01:18:38;;;;;;;0.20;0.20;;;12.10;99.90;;;;;;5067489;28;20139;-72
2023/10/14 01:21:08;;;;;;;0.00;0.00;;;12.00;99.90;;;;;;5083529;28;20545;-72
2023/10/14 01:23:37;;;;;;;0.05;0.05;;;11.90;99.90;;;;;;5079063;28;20096;-73
2023/10/14 01:26:09;;;;;;;0.10;0.10;;;11.80;99.90;;;;;;5112998;27;20581;-73
2023/10/14 01:28:42;;;;;;;0.10;0.10;;;11.80;99.90;;;;;;5113121;27;20089;-72
2023/10/14 01:31:54;;;;;;;0.10;0.10;;;11.70;99.90;;;;;;5114984;28;20067;-74
2023/10/14 01:34:28;;;;;;;0.20;0.20;;;11.70;99.90;;;;;;5082490;28;20075;-73
2023/10/14 01:36:55;;;;;;;1.30;0.55;;;11.60;99.90;;;;;;5084143;28;20036;-73
2023/10/14 01:39:25;;;;;;;0.08;0.08;;;11.50;99.90;;;;;;5080683;28;20402;-73
2023/10/14 01:41:53;;;;;;;0.77;0.77;;;11.40;99.90;;;;;;5078838;28;20533;-72
2023/10/14 01:44:21;;;;;;;7.82;0.47;;;11.30;99.90;;;;;;5081901;28;20043;-74
2023/10/14 01:46:48;;;;;;;1.00;0.65;;;11.30;99.90;;;;;;5117481;27;20040;-72
2023/10/14 01:49:19;;;;;;;0.10;0.10;;;11.20;99.90;;;;;;5082888;28;20122;-72
2023/10/14 01:51:49;;;;;;;2.10;1.58;;;11.10;99.90;;;;;;5082400;28;20045;-72
2023/10/14 01:54:16;;;;;;;0.35;0.35;;;11.00;99.90;;;;;;5078229;28;20089;-71
2023/10/14 01:56:42;;;;;;;1.45;1.35;;;10.90;99.90;;;;;;5114576;28;20043;-70
2023/10/14 01:59:09;;;;;;;0.00;0.00;;;10.90;99.90;;;;;;5082938;28;20945;-72
2023/10/14 02:01:41;;;;;;;0.65;0.25;;;10.90;99.90;;;;;;5095866;27;20421;-70
2023/10/14 02:04:07;;;;;;;0.00;0.00;;;10.90;99.90;;;;;;5071019;28;20138;-71
2023/10/14 02:06:36;;;;;;;0.13;0.13;;;10.80;99.90;;;;;;5086760;27;20424;-70
2023/10/14 02:09:03;;;;;;;0.00;0.00;;;10.80;99.90;;;;;;5065114;28;20035;-70
2023/10/14 02:11:38;;;;;;;0.20;0.20;;;10.80;99.90;;;;;;5083518;28;20141;-69
2023/10/14 02:14:08;;;;;;;0.03;0.00;;;10.80;99.90;;;;;;5084400;28;20028;-70
2023/10/14 02:16:41;;;;;;;0.85;0.20;;;10.80;99.90;;;;;;5118581;27;20031;-69
2023/10/14 02:19:17;;;;;;;;;;;10.70;99.90;;;;;;5117571;27;20041;-70
2023/10/14 02:21:43;;;;;;;0.00;0.00;;;10.70;99.90;;;;;;5087267;28;19924;-70
2023/10/14 02:24:10;;;;;;;0.00;0.00;;;10.60;99.90;;;;;;5079263;28;20128;-69
2023/10/14 02:26:38;;;;;;;0.00;0.00;;;10.60;99.90;;;;;;5116022;27;20085;-70
2023/10/14 02:29:09;;;;;;;0.00;0.00;;;10.50;99.90;;;;;;5086713;28;20058;-70
2023/10/14 02:31:37;;;;;;;0.75;0.30;;;10.50;99.90;;;;;;5104302;27;20031;-70
2023/10/14 02:34:06;;;;;;;0.00;0.00;;;10.40;99.90;;;;;;5084702;28;20438;-69
2023/10/14 02:36:35;;;;;;;0.00;0.00;;;10.40;99.90;;;;;;5081490;28;20036;-69
2023/10/14 02:39:14;;;;;;;0.52;0.52;;;10.30;99.90;;;;;;5085197;28;20038;-69
2023/10/14 02:41:43;;;;;;;0.10;0.10;;;10.30;99.90;;;;;;5108578;27;20420;-69
2023/10/14 02:46:45;;;;;;;0.55;0.30;;;10.20;99.90;;;;;;5085700;28;20105;-69
2023/10/14 02:49:18;;;;;;;0.10;0.10;;;10.20;99.90;;;;;;5088046;27;20035;-69
2023/10/14 02:51:45;;;;;;;0.05;0.05;;;10.20;99.90;;;;;;5088967;28;21921;-69
2023/10/14 02:54:54;;;;;;;0.08;0.08;;;10.20;99.90;;;;;;5111766;27;20047;-68
2023/10/14 02:59:56;;;;;;;0.63;0.43;;;10.10;99.90;;;;;;5079528;27;20044;-69
2023/10/14 03:07:28;;;;;;;0.08;0.08;;;10.00;99.90;;;;;;5120278;27;20188;-69
2023/10/14 03:10:09;;;;;;;0.00;0.00;;;10.10;99.90;;;;;;5117150;27;20097;-69
2023/10/14 03:12:39;;;;;;;1.23;0.40;;;10.00;99.90;;;;;;5084606;28;20078;-69
2023/10/14 03:15:18;;;;;;;0.10;0.10;;;10.00;99.90;;;;;;5121014;27;20042;-68
2023/10/14 03:17:58;;;;;;;13.48;0.55;;;10.10;99.90;;;;;;5085537;28;20040;-68
2023/10/14 03:22:53;;;;;;;0.10;0.10;;;10.10;99.90;;;;;;5091583;27;20055;-69
2023/10/14 03:25:23;;;;;;;0.03;0.03;;;10.10;99.90;;;;;;5089110;28;20043;-70
2023/10/14 03:27:50;;;;;;;0.20;0.10;;;10.10;99.90;;;;;;5122689;27;20585;-70
2023/10/14 03:30:15;;;;;;;0.10;0.10;;;10.20;99.90;;;;;;5118999;27;20043;-70
2023/10/14 03:32:42;;;;;;;0.10;0.10;;;10.20;99.90;;;;;;5085627;28;20530;-70
2023/10/14 03:35:12;;;;;;;0.25;0.25;;;10.30;99.90;;;;;;5090409;28;20040;-69
2023/10/14 03:37:40;;;;;;;0.15;0.15;;;10.40;99.90;;;;;;5112766;27;20024;-68
2023/10/14 03:42:54;;;;;;;0.10;0.10;;;10.40;99.90;;;;;;5083620;28;20126;-69
2023/10/14 03:45:21;;;;;;;0.00;0.00;;;10.40;99.90;;;;;;5087115;28;20045;-69
2023/10/14 03:47:52;;;;;;;0.28;0.10;;;10.40;99.90;;;;;;5117982;27;20093;-69
2023/10/14 03:50:23;;;;;;;0.10;0.10;;;10.40;99.90;;;;;;5118902;27;20488;-69
2023/10/14 03:52:51;;;;;;;0.00;0.00;;;10.30;99.90;;;;;;5117818;27;20478;-68
2023/10/14 03:55:24;;;;;;;0.03;0.03;;;10.30;99.90;;;;;;5084508;28;20122;-69
2023/10/14 03:57:51;;;;;;;0.10;0.10;;;10.30;99.90;;;;;;5082294;27;20070;-68
2023/10/14 04:00:48;;;;;;;0.30;0.25;;;10.20;99.90;;;;;;5114925;27;20042;-70
2023/10/14 04:03:24;;;;;;;0.03;0.03;;;10.20;99.90;;;;;;5079586;28;20054;-69
2023/10/14 04:05:54;;;;;;;0.10;0.10;;;10.20;99.90;;;;;;5064772;28;20039;-69
2023/10/14 04:08:30;;;;;;;0.00;0.00;;;10.20;99.90;;;;;;5079361;28;20576;-68
2023/10/14 04:11:12;;;;;;;0.75;0.20;;;10.10;99.90;;;;;;5114904;27;20437;-68
2023/10/14 04:13:41;;;;;;;0.00;0.00;;;10.10;99.90;;;;;;5112958;27;20124;-69
2023/10/14 04:16:12;;;;;;;0.98;0.43;;;10.10;99.90;;;;;;5078934;28;20046;-69
2023/10/14 04:18:40;;;;;;;0.03;0.03;;;10.10;99.90;;;;;;5088895;28;20161;-70
2023/10/14 04:21:25;;;;;;;0.00;0.00;;;10.10;99.90;;;;;;5112250;27;20803;-68
2023/10/14 04:24:12;;;;;;;2.17;1.00;;;10.10;99.90;;;;;;5086052;28;20082;-69
2023/10/14 04:26:41;;;;;;;0.20;0.20;;;10.10;99.90;;;;;;5084322;28;20042;-69
2023/10/14 04:29:16;;;;;;;0.00;0.00;;;10.10;99.90;;;;;;5083461;28;20084;-69
2023/10/14 04:31:41;;;;;;;0.43;0.43;;;10.10;99.90;;;;;;5085455;28;20028;-69
2023/10/14 04:34:10;;;;;;;0.10;0.10;;;10.10;99.90;;;;;;5092438;28;20056;-70
2023/10/14 04:39:12;;;;;;;0.00;0.00;;;10.00;99.90;;;;;;5114608;27;20046;-69
2023/10/14 04:41:46;;;;;;;0.00;0.00;;;10.10;99.90;;;;;;5106914;27;20059;-70
2023/10/14 04:44:12;;;;;;;0.25;0.22;;;10.10;99.90;;;;;;5067510;28;20085;-68
2023/10/14 04:46:46;;;;;;;0.08;0.08;;;10.00;99.90;;;;;;5083239;28;20497;-69
2023/10/14 04:49:15;;;;;;;0.00;0.00;;;10.00;99.90;;;;;;5079135;28;20478;-69
2023/10/14 04:51:45;;;;;;;0.20;0.20;;;10.00;99.90;;;;;;5079880;28;20031;-68
2023/10/14 04:54:12;;;;;;;0.50;0.50;;;10.00;99.90;;;;;;5084360;28;20355;-68
2023/10/14 04:56:37;;;;;;;0.10;0.10;;;10.00;99.90;;;;;;5080720;28;20124;-68
2023/10/14 04:59:05;;;;;;;0.00;0.00;;;10.00;99.90;;;;;;5082185;28;20546;-69
2023/10/14 05:01:32;;;;;;;0.10;0.10;;;10.00;99.90;;;;;;5079874;28;20039;-69
2023/10/14 05:03:58;;;;;;;0.20;0.20;;;10.00;99.90;;;;;;5114341;27;20051;-69
2023/10/14 05:06:29;;;;;;;0.20;0.20;;;10.00;99.90;;;;;;5110903;27;20044;-69
2023/10/14 05:08:57;;;;;;;0.05;0.05;;;10.00;99.90;;;;;;5113484;27;20054;-69
2023/10/14 05:11:25;;;;;;;0.10;0.10;;;10.00;99.90;;;;;;5081008;28;22593;-68
2023/10/14 05:14:14;;;;;;;0.00;0.00;;;9.90;99.90;;;;;;5069227;28;20031;-68
2023/10/14 05:16:54;;;;;;;0.00;0.00;;;9.90;99.90;;;;;;5083694;28;20047;-68
2023/10/14 05:19:30;;;;;;;0.30;0.30;;;10.00;99.90;;;;;;5084795;28;20066;-66
2023/10/14 05:21:58;;;;;;;0.00;0.00;;;10.00;99.90;;;;;;5114856;27;20700;-69
2023/10/14 05:24:28;;;;;;;0.45;0.15;;;10.00;99.90;;;;;;5111227;28;20479;-68
2023/10/14 05:27:01;;;;;;;0.00;0.00;;;10.00;99.90;;;;;;5110576;28;20043;-67
2023/10/14 05:29:28;;;;;;;0.10;0.10;;;10.00;99.90;;;;;;5082961;28;20069;-68
2023/10/14 05:32:04;;;;;;;0.00;0.00;;;10.10;99.90;;;;;;5088795;28;20402;-68
2023/10/14 05:34:30;;;;;;;14.05;0.60;;;10.10;99.90;;;;;;5079616;28;20107;-68
2023/10/14 05:36:55;;;;;;;0.35;0.22;;;10.10;99.90;;;;;;5089653;28;20119;-67
2023/10/14 05:39:22;;;;;;;0.03;0.03;;;10.00;99.90;;;;;;5094236;28;20131;-68
2023/10/14 05:41:48;;;;;;;0.08;0.08;;;10.00;99.90;;;;;;5112690;27;20052;-69
2023/10/14 05:44:14;;;;;;;0.00;0.00;;;10.00;99.90;;;;;;5077040;28;20084;-68
2023/10/14 05:46:41;;;;;;;0.10;0.10;;;9.90;99.90;;;;;;5111659;27;20078;-69
2023/10/14 05:49:07;;;;;;;0.05;0.05;;;9.90;99.90;;;;;;5096216;28;20035;-68
2023/10/14 05:51:33;;;;;;;0.28;0.28;;;9.90;99.90;;;;;;5094674;28;20363;-67
2023/10/14 05:53:59;;;;;;;0.10;0.10;;;9.90;99.90;;;;;;5086596;28;20036;-68
2023/10/14 05:56:28;;;;;;;0.10;0.10;;;9.90;99.90;;;;;;5107387;27;20035;-69
2023/10/14 05:58:53;;;;;;;0.17;0.17;;;9.90;99.90;;;;;;5083708;28;20544;-68
2023/10/14 06:01:20;;;;;;;0.00;0.00;;;9.90;99.90;;;;;;5089024;28;20094;-69
2023/10/14 06:03:46;;;;;;;0.10;0.10;;;9.90;99.90;;;;;;5093604;27;20051;-69
2023/10/14 06:06:15;;;;;;;0.10;0.10;;;9.90;99.90;;;;;;5076806;28;20071;-68
2023/10/14 06:08:46;;;;;;;0.10;0.10;;;9.90;99.90;;;;;;5112802;27;20036;-67
2023/10/14 06:11:12;;;;;;;0.05;0.05;;;9.90;99.90;;;;;;5083301;28;20046;-68
2023/10/14 06:13:38;;;;;;;0.00;0.00;;;9.90;99.90;;;;;;5094087;28;20028;-68
2023/10/14 06:16:09;;;;;;;0.00;0.00;;;9.90;99.90;;;;;;5080723;28;20052;-67
2023/10/14 06:18:35;;;;;;;0.65;0.43;;;9.80;99.90;;;;;;5123766;27;20047;-69
2023/10/14 06:21:01;;;;;;;0.00;0.00;;;9.90;99.90;;;;;;5093967;28;20054;-68
2023/10/14 06:23:27;;;;;;;0.75;0.75;;;9.90;99.90;;;;;;5091241;28;20044;-68
2023/10/14 06:25:56;;;;;;;0.10;0.10;;;9.90;99.90;;;;;;5094707;27;20119;-69
2023/10/14 06:28:21;;;;;;;1.55;1.17;;;9.90;99.90;;;;;;5092071;28;20043;-69
2023/10/14 06:30:48;;;;;;;0.00;0.00;;;9.90;99.90;;;;;;5085152;28;20040;-68
2023/10/14 06:33:13;;;;;;;10.88;0.65;;;10.00;99.90;;;;;;5086254;28;20032;-68
2023/10/14 06:35:42;;;;;;;0.17;0.17;;;10.00;99.90;;;;;;5098538;28;20046;-67
2023/10/14 06:38:09;;;;;;;0.43;0.43;;;10.00;99.90;;;;;;5095466;28;20105;-68
2023/10/14 06:40:36;;;;;;;0.10;0.10;;;10.00;99.90;;;;;;5064340;28;20123;-68
2023/10/14 06:43:12;;;;;;;0.00;0.00;;;10.00;99.90;;;;;;5125253;27;20533;-67
2023/10/14 06:45:38;;;;;;;0.00;0.00;;;10.00;99.90;;;;;;5076899;28;20036;-68
2023/10/14 06:48:09;;;;;;;0.10;0.10;;;10.00;99.90;;;;;;5090991;28;20140;-67
2023/10/14 06:50:37;;;;;;;0.10;0.10;;;10.00;99.90;;;;;;5093504;28;20040;-67
2023/10/14 06:53:07;;;;;;;0.20;0.20;;;10.00;99.90;;;;;;5076070;28;20040;-67
2023/10/14 06:55:37;;;;;;;0.00;0.00;;;10.10;99.90;;;;;;5110640;28;20040;-67
2023/10/14 06:58:08;;;;;;;0.03;0.03;;;10.10;99.90;;;;;;5095766;28;20039;-67
2023/10/14 07:00:37;;;;;;;0.30;0.30;;;10.10;99.90;;;;;;5092813;28;20039;-67
2023/10/14 07:03:06;;;;;;;0.00;0.00;;;10.10;99.90;;;;;;5091436;27;20047;-67
2023/10/14 07:05:43;;;;;;;0.10;0.10;;;10.10;99.90;;;;;;5086404;28;20027;-67
2023/10/14 07:08:09;;;;;;;0.10;0.10;;;10.20;99.90;;;;;;5095181;28;20449;-67
2023/10/14 07:10:34;;;;;;;2.58;0.75;;;10.10;99.90;;;;;;5093416;28;20039;-68
2023/10/14 07:13:03;;;;;;;1.88;0.38;;;10.10;99.90;;;;;;5088163;28;20038;-66
2023/10/14 07:15:33;;;;;;;0.10;0.10;;;10.10;99.90;;;;;;5091795;28;20047;-67
2023/10/14 07:17:59;;;;;;;0.25;0.25;;;10.20;99.90;;;;;;5109306;27;20115;-67
2023/10/14 07:20:34;;;;;;;7.32;0.38;;;10.20;99.90;;;;;;5077403;28;20126;-67
2023/10/14 07:23:01;;;;;;;0.10;0.10;;;10.20;99.90;;;;;;5123644;27;20094;-67
2023/10/14 07:25:31;;;;;;;0.05;0.05;;;10.30;99.90;;;;;;5074018;28;20032;-66
2023/10/14 07:27:59;;;;;;;0.10;0.10;;;10.30;99.90;;;;;;5107909;27;20047;-68
2023/10/14 07:30:28;;;;;;;0.00;0.00;;;10.40;99.90;;;;;;5123178;27;20518;-66
2023/10/14 07:32:55;;;;;;;0.08;0.08;;;10.40;99.90;;;;;;5094077;28;20077;-67
2023/10/14 07:35:21;;;;;;;0.10;0.10;;;10.50;99.90;;;;;;5124878;27;20062;-65
2023/10/14 07:37:49;;;;;;;0.10;0.10;;;10.60;99.90;;;;;;5082768;28;20042;-65
2023/10/14 07:40:27;;;;;;;0.10;0.10;;;10.60;99.90;;;;;;5085847;28;20093;-66
2023/10/14 07:42:54;;;;;;;0.10;0.10;;;10.70;99.90;;;;;;5126324;27;20043;-66
2023/10/14 07:45:29;;;;;;;0.30;0.22;;;10.80;99.90;;;;;;5076412;28;20035;-65
2023/10/14 07:47:56;;;;;;;0.00;0.00;;;10.90;99.90;;;;;;5126648;27;20494;-66
2023/10/14 07:50:31;;;;;;;0.10;0.10;;;11.00;99.90;;;;;;5127628;27;20047;-69
2023/10/14 07:53:07;;;;;;;0.10;0.10;;;11.20;99.90;;;;;;5118863;27;20105;-67
2023/10/14 07:55:40;;;;;;;0.25;0.25;;;11.30;99.90;;;;;;5090799;28;20127;-66
2023/10/14 07:58:10;;;;;;;0.10;0.10;;;11.40;99.90;;;;;;5089220;28;20109;-67
2023/10/14 08:00:40;;;;;;;3.83;0.43;;;11.40;99.90;;;;;;5075841;28;20379;-66
2023/10/14 08:03:15;;;;;;;0.95;0.20;;;11.40;99.90;;;;;;5090450;27;20040;-66
2023/10/14 08:05:41;;;;;;;2.13;0.30;;;11.40;99.90;;;;;;5118465;27;20039;-66
2023/10/14 08:08:09;;;;;;;1.45;1.17;;;11.50;99.90;;;;;;5084478;28;20051;-66
2023/10/14 08:10:42;;;;;;;0.10;0.10;;;11.60;99.90;;;;;;5079187;28;20039;-66
2023/10/14 08:13:09;;;;;;;0.00;0.00;;;11.70;99.90;;;;;;5080974;28;20077;-67
2023/10/14 08:15:35;;;;;;;0.00;0.00;;;11.80;99.90;;;;;;5077328;28;20042;-67
2023/10/14 08:18:04;;;;;;;0.05;0.05;;;11.90;99.90;;;;;;5115585;27;20051;-68
2023/10/14 08:20:33;;;;;;;0.40;0.40;;;12.00;99.90;;;;;;5106714;27;20040;-67
2023/10/14 08:22:59;;;;;;;0.10;0.10;;;12.10;99.90;;;;;;5104199;27;20131;-67
2023/10/14 08:25:28;;;;;;;0.10;0.10;;;12.10;99.90;;;;;;5085635;28;20126;-66
2023/10/14 08:27:55;;;;;;;2.53;1.50;;;12.10;99.90;;;;;;5070511;28;20040;-67
2023/10/14 08:30:24;;;;;;;0.20;0.20;;;12.10;99.90;;;;;;5118953;27;20040;-67
2023/10/14 08:32:53;;;;;;;0.68;0.52;;;12.10;99.90;;;;;;5124515;27;20081;-67
2023/10/14 08:35:19;;;;;;;0.00;0.00;;;12.20;99.90;;;;;;5082312;28;20044;-67
2023/10/14 08:37:47;;;;;;;0.70;0.20;;;12.20;99.90;;;;;;5091148;28;20093;-67
2023/10/14 08:40:21;;;;;;;0.28;0.28;;;12.00;99.90;;;;;;5087702;28;20046;-67
2023/10/14 08:42:55;;;;;;;0.10;0.10;;;11.80;99.90;;;;;;5091015;28;20047;-70
2023/10/14 08:45:23;;;;;;;0.03;0.03;;;11.60;99.90;;;;;;5086627;28;20035;-67
2023/10/14 08:47:50;;;;;;;0.00;0.00;;;11.40;99.90;;;;;;5085947;27;20274;-68
2023/10/14 08:50:18;;;;;;;0.10;0.10;;;11.20;99.90;;;;;;5111670;27;20661;-66
2023/10/14 08:52:45;;;;;;;0.20;0.20;;;11.10;99.90;;;;;;5079984;28;20042;-66
2023/10/14 08:55:14;;;;;;;0.10;0.10;;;11.10;99.90;;;;;;5122248;27;20895;-67
2023/10/14 08:57:40;;;;;;;1.00;0.38;;;11.10;99.90;;;;;;5123992;27;20036;-67
2023/10/14 09:00:12;;;;;;;0.40;0.20;;;11.10;99.90;;;;;;5082013;28;20092;-67
2023/10/14 09:02:40;;;;;;;0.40;0.40;;;11.20;99.90;;;;;;5121247;27;20035;-66
2023/10/14 09:05:11;;;;;;;0.63;0.20;;;11.10;99.90;;;;;;5092470;28;20393;-67
2023/10/14 09:07:38;;;;;;;0.03;0.03;;;11.20;99.90;;;;;;5121488;27;20051;-68
2023/10/14 09:10:05;;;;;;;0.38;0.38;;;11.20;99.90;;;;;;5114603;27;20040;-66
2023/10/14 09:12:30;;;;;;;0.22;0.22;;;11.30;99.90;;;;;;5077149;28;20085;-68
2023/10/14 09:14:58;;;;;;;0.15;0.15;;;11.40;99.90;;;;;;5083470;28;20490;-69
2023/10/14 09:17:23;;;;;;;0.85;0.30;;;11.50;99.90;;;;;;5067990;27;20032;-68
2023/10/14 09:19:50;;;;;;;0.30;0.25;;;11.70;99.90;;;;;;5080635;28;20509;-68
2023/10/14 09:22:34;;;;;;;0.10;0.10;;;11.90;99.90;;;;;;5110497;27;20078;-67
2023/10/14 09:24:59;;;;;;;2.83;0.35;;;12.20;99.90;;;;;;5090867;28;20036;-68
2023/10/14 09:27:26;;;;;;;2.15;0.32;;;12.40;99.90;;;;;;5067369;28;20032;-70
2023/10/14 09:29:53;;;;;;;0.28;0.28;;;12.70;99.90;;;;;;5085917;28;20122;-69
2023/10/14 09:32:18;;;;;;;0.10;0.10;;;12.80;99.90;;;;;;5124579;28;20059;-68
2023/10/14 09:34:44;;;;;;;0.20;0.20;;;13.00;99.90;;;;;;5090876;28;20494;-67
2023/10/14 09:37:10;;;;;;;0.40;0.40;;;13.20;99.90;;;;;;5090980;28;20382;-68
2023/10/14 09:39:42;;;;;;;0.08;0.08;;;13.40;99.90;;;;;;5091983;28;20051;-67
2023/10/14 09:42:11;;;;;;;0.65;0.65;;;13.50;99.90;;;;;;5088828;28;20130;-69
2023/10/14 09:44:42;;;;;;;0.00;0.00;;;13.50;99.90;;;;;;5091819;28;20040;-69
2023/10/14 09:47:12;;;;;;;1.00;0.93;;;13.60;99.90;;;;;;5081449;28;20035;-67
2023/10/14 09:49:39;;;;;;;0.40;0.40;;;13.80;99.90;;;;;;5091581;28;20671;-70
2023/10/14 09:52:06;;;;;;;0.22;0.17;;;13.90;99.90;;;;;;5091454;28;20107;-67
2023/10/14 09:54:33;;;;;;;0.28;0.28;;;14.00;99.90;;;;;;5083323;28;20110;-68
2023/10/14 09:57:03;;;;;;;0.10;0.10;;;14.00;99.90;;;;;;5091170;28;20044;-68
2023/10/14 09:59:30;;;;;;;0.15;0.15;;;13.70;99.90;;;;;;5073167;28;20047;-69
2023/10/14 10:01:56;;;;;;;1.25;0.35;;;13.00;99.90;;;;;;5085845;28;20074;-65
2023/10/14 10:04:28;;;;;;;0.70;0.30;;;12.40;99.90;;;;;;5092480;28;20085;-66
2023/10/14 10:07:15;;;;;;;1.10;0.57;;;12.20;99.90;;;;;;5090044;28;20077;-66
2023/10/14 10:10:10;;;;;;;0.00;0.00;;;12.30;99.90;;;;;;5091831;28;20044;-65
2023/10/14 10:12:37;;;;;;;0.10;0.10;;;12.50;99.90;;;;;;5088669;28;20092;-67
2023/10/14 10:15:06;;;;;;;1.48;0.90;;;12.80;99.90;;;;;;5092353;28;20043;-68
2023/10/14 10:17:34;;;;;;;0.75;0.30;;;13.00;99.90;;;;;;5090334;28;20043;-69
2023/10/14 10:20:13;;;;;;;1.33;1.23;;;13.20;99.90;;;;;;5091917;28;20079;-66
2023/10/14 10:22:50;;;;;;;0.10;0.10;;;13.40;99.90;;;;;;5124897;27;20152;-72
2023/10/14 10:25:17;;;;;;;0.52;0.52;;;13.50;99.90;;;;;;5095343;28;20117;-67
2023/10/14 10:27:45;;;;;;;0.30;0.30;;;13.70;99.90;;;;;;5077412;28;20486;-68
2023/10/14 10:30:16;;;;;;;0.00;0.00;;;13.90;99.90;;;;;;5077641;28;20048;-70
2023/10/14 10:32:46;;;;;;;0.00;0.00;;;13.80;99.90;;;;;;5090068;28;20233;-65
2023/10/14 10:35:14;;;;;;;0.20;0.20;;;13.60;99.90;;;;;;5129728;27;20186;-68
2023/10/14 10:37:48;;;;;;;0.47;0.47;;;13.50;99.90;;;;;;5128590;27;20063;-68
2023/10/14 10:40:22;;;;;;;0.50;0.50;;;13.60;99.90;;;;;;5095247;28;20047;-68
2023/10/14 10:42:53;;;;;;;0.10;0.10;;;13.70;99.90;;;;;;5078908;28;20044;-66
2023/10/14 10:45:22;;;;;;;0.47;0.47;;;13.80;99.90;;;;;;5109102;27;20063;-69
2023/10/14 10:47:56;;;;;;;0.40;0.40;;;13.90;99.90;;;;;;5116513;27;20040;-68
2023/10/14 10:50:49;;;;;;;1.75;0.40;;;14.00;99.90;;;;;;5094914;28;20176;-67
2023/10/14 10:53:20;;;;;;;0.00;0.00;;;14.20;99.90;;;;;;5092229;28;20044;-70
2023/10/14 10:55:48;;;;;;;0.03;0.03;;;14.30;99.90;;;;;;5091993;28;20032;-70
2023/10/14 10:58:15;;;;;;;0.10;0.10;;;14.20;99.90;;;;;;5081739;28;20141;-68
2023/10/14 11:00:45;;;;;;;0.00;0.00;;;14.10;99.90;;;;;;5074398;28;20134;-67
2023/10/14 11:03:14;;;;;;;1.55;0.60;;;14.00;99.90;;;;;;5088527;28;20039;-66
2023/10/14 11:05:41;;;;;;;0.30;0.28;;;14.00;99.90;;;;;;5094542;28;20042;-65
2023/10/14 11:08:07;;;;;;;0.00;0.00;;;13.80;99.90;;;;;;5123859;27;20039;-69
2023/10/14 11:10:38;;;;;;;0.90;0.38;;;13.70;99.90;;;;;;5089591;28;20067;-65
2023/10/14 11:13:05;;;;;;;0.25;0.25;;;13.80;99.90;;;;;;5086700;27;20042;-66
2023/10/14 11:15:31;;;;;;;0.10;0.10;;;13.90;99.90;;;;;;5090949;28;20068;-66
2023/10/14 11:17:58;;;;;;;0.00;0.00;;;13.80;99.90;;;;;;5084904;27;20043;-67
2023/10/14 11:20:35;;;;;;;0.32;0.32;;;13.60;99.90;;;;;;5089908;28;20114;-70
2023/10/14 11:23:03;;;;;;;0.00;0.00;;;13.30;99.90;;;;;;5088178;28;20046;-67
2023/10/14 11:25:35;;;;;;;0.25;0.25;;;13.00;99.90;;;;;;5088330;28;21699;-67
2023/10/14 11:28:01;;;;;;;0.00;0.00;;;12.90;99.90;;;;;;5074830;28;20042;-65
2023/10/14 11:30:27;;;;;;;0.05;0.05;;;13.00;99.90;;;;;;5094119;28;20040;-66
2023/10/14 11:32:53;;;;;;;0.00;0.00;;;13.10;99.90;;;;;;5091899;28;20119;-69
2023/10/14 11:35:21;;;;;;;0.30;0.30;;;13.10;99.90;;;;;;5070394;28;20123;-66
2023/10/14 11:37:52;;;;;;;0.55;0.40;;;13.10;99.90;;;;;;5118163;27;20163;-68
2023/10/14 11:40:19;;;;;;;0.52;0.20;;;12.90;99.90;;;;;;5084666;28;20559;-66
2023/10/14 11:42:45;;;;;;;0.10;0.10;;;12.90;99.90;;;;;;5125225;27;20043;-66
2023/10/14 11:45:10;;;;;;;0.45;0.30;;;12.90;99.90;;;;;;5094622;28;20543;-66
2023/10/14 11:47:44;;;;;;;0.30;0.30;;;13.00;99.90;;;;;;5091193;28;20038;-67
2023/10/14 11:50:12;;;;;;;0.10;0.10;;;13.20;99.90;;;;;;5073705;28;20052;-67
2023/10/14 11:52:42;;;;;;;0.10;0.10;;;13.40;99.90;;;;;;5078682;28;20031;-66
2023/10/14 11:55:14;;;;;;;0.40;0.35;;;13.30;99.90;;;;;;5128726;27;20043;-67
2023/10/14 11:57:42;;;;;;;0.10;0.10;;;13.20;99.90;;;;;;5121248;27;20081;-65
2023/10/14 12:00:10;;;;;;;0.00;0.00;;;13.00;99.90;;;;;;5094127;28;20082;-66
2023/10/14 12:02:37;;;;;;;0.00;0.00;;;12.90;99.90;;;;;;5083957;28;20043;-65
2023/10/14 12:05:04;;;;;;;0.20;0.15;;;12.80;99.90;;;;;;5073822;28;20047;-67
2023/10/14 12:07:33;;;;;;;0.25;0.22;;;12.80;99.90;;;;;;5080375;28;20057;-67
2023/10/14 12:10:06;;;;;;;0.13;0.13;;;12.90;99.90;;;;;;5075446;28;20081;-64
2023/10/14 12:12:32;;;;;;;0.30;0.30;;;13.20;99.90;;;;;;5124599;27;20477;-66
2023/10/14 12:15:05;;;;;;;0.20;0.20;;;13.30;99.90;;;;;;5077138;28;20092;-65
2023/10/14 12:17:34;;;;;;;0.00;0.00;;;13.40;99.90;;;;;;5093145;28;20035;-67
2023/10/14 12:20:05;;;;;;;0.00;0.00;;;13.50;99.90;;;;;;5093282;28;20047;-64
2023/10/14 12:22:32;;;;;;;0.10;0.10;;;13.70;99.90;;;;;;5091185;28;20378;-66
2023/10/14 12:24:57;;;;;;;0.05;0.05;;;13.80;99.90;;;;;;5114657;27;20086;-66
2023/10/14 12:27:25;;;;;;;0.10;0.10;;;13.90;99.90;;;;;;5091984;28;20502;-66
2023/10/14 12:29:52;;;;;;;6.20;0.30;;;14.00;99.90;;;;;;5092857;28;20052;-65
2023/10/14 12:32:18;;;;;;;0.00;0.00;;;14.00;99.90;;;;;;5091866;28;20035;-65
2023/10/14 12:34:48;;;;;;;0.20;0.20;;;14.00;99.90;;;;;;5093399;28;20529;-64
2023/10/14 12:37:21;;;;;;;0.10;0.10;;;14.10;99.90;;;;;;5090896;28;20035;-67
2023/10/14 12:42:47;;;;;;;0.00;0.00;;;14.10;99.90;;;;;;5077419;28;20052;-65
2023/10/14 12:45:14;;;;;;;1.23;1.23;;;13.70;99.90;;;;;;5126633;27;20047;-66
2023/10/14 12:47:48;;;;;;;0.40;0.10;;;13.40;99.90;;;;;;5121829;27;20093;-65
2023/10/14 12:50:19;;;;;;;0.28;0.28;;;13.00;99.90;;;;;;5092125;28;20039;-66
2023/10/14 12:53:04;;;;;;;0.20;0.20;;;12.90;99.90;;;;;;5090742;28;20054;-64
2023/10/14 12:55:33;;;;;;;3.08;0.90;;;12.90;99.90;;;;;;5091392;28;20639;-66
2023/10/14 12:57:58;;;;;;;3.20;1.25;;;13.00;99.90;;;;;;5073347;28;20127;-65
2023/10/14 13:00:30;;;;;;;0.10;0.10;;;13.10;99.90;;;;;;5072713;28;20127;-66
2023/10/14 13:03:00;;;;;;;0.30;0.20;;;13.00;99.90;;;;;;5106945;28;20040;-69
2023/10/14 13:05:28;;;;;;;0.20;0.20;;;12.70;99.90;;;;;;5106970;28;20040;-64
2023/10/14 13:07:56;;;;;;;0.55;0.38;;;12.50;99.90;;;;;;5075589;28;20040;-66
2023/10/14 13:10:23;;;;;;;0.30;0.20;;;12.30;99.90;;;;;;5091805;28;20047;-66
2023/10/14 13:12:53;;;;;;;0.00;0.00;;;12.20;99.90;;;;;;5090166;28;20070;-65
2023/10/14 13:15:30;;;;;;;0.65;0.40;;;12.20;99.90;;;;;;5092022;28;20058;-68
2023/10/14 13:18:00;;;;;;;1.08;0.25;;;12.30;99.90;;;;;;5092460;28;20115;-67
2023/10/14 13:20:31;;;;;;;0.00;0.00;;;12.40;99.90;;;;;;5091930;28;20510;-64
2023/10/14 13:22:59;;;;;;;0.22;0.22;;;12.60;99.90;;;;;;5092528;28;20047;-64
2023/10/14 13:25:25;;;;;;;0.00;0.00;;;12.70;99.90;;;;;;5092265;28;20118;-66